Kathy Azlin — WDH4252 — position and weather

sailwx.info

Track history (hours):
 
Tides and Currents Weather Stations Pressure Air Temp Water Temp Dewpoint Dewpoint Depression Visibility Wind Speed Wind Dir Waves Ship Positions

Kathy Azlin

Owner: Mganolia Marine Traqnsport Company, Vicksburg, MS. More information available from US FCC via Universal Licensing System and Coast Guard Vessel Documentation Center.

Last reported at 2017-Oct-13 18:47 UTC. Time now 2017-Oct-18 23:52 UTC.
Position N 32°40' W 091°08'.

Length 33 m; draft 2.8 m.

Type: Towing. MMSI: 367615770.

Date/timePositionNaut miles runAvg speedWind from/ knotsBaromVisibWave heightAir tempDewpointWater temp
2017-Oct-13 18:47N 32°40' W 091°08'3 4.4
2017-Oct-13 18:11N 32°38' W 091°09'1 3.3
2017-Oct-13 18:00N 32°37' W 091°09'0 0.1
2017-Oct-13 17:30N 32°37' W 091°09'2 3.9
2017-Oct-13 17:01N 32°36' W 091°08'2 4.7
2017-Oct-13 16:31N 32°34' W 091°06'2 4.0
2017-Oct-13 15:57N 32°32' W 091°06'2 5.4
2017-Oct-13 15:30N 32°29' W 091°07'3 5.2
2017-Oct-13 15:00N 32°27' W 091°05'3 5.2
2017-Oct-13 14:30N 32°26' W 091°03'2 4.8
2017-Oct-13 14:01N 32°25' W 090°60'2 4.3
2017-Oct-13 13:30N 32°23' W 090°60'1 1.5
2017-Oct-13 13:01N 32°22' W 091°00'2 4.3
2017-Oct-13 12:30N 32°21' W 090°58'3 5.9
2017-Oct-13 12:00N 32°21' W 090°55'3 5.1
2017-Oct-13 11:31N 32°18' W 090°55'1 1.2
2017-Oct-13 11:00N 32°18' W 090°55'0 0.0
2017-Oct-13 10:30N 32°17' W 090°55'0 0.0
2017-Oct-13 10:01N 32°17' W 090°55'0 0.0
2017-Oct-13 09:30N 32°17' W 090°55'0 0.0
2017-Oct-13 09:00N 32°17' W 090°55'0 0.0
2017-Oct-13 08:30N 32°17' W 090°55'0 0.0
2017-Oct-13 08:00N 32°17' W 090°55'0 0.0
2017-Oct-13 07:31N 32°17' W 090°55'0 0.0
2017-Oct-13 07:00N 32°17' W 090°55'0 0.0
2017-Oct-13 06:31N 32°17' W 090°55'1 2.8
2017-Oct-13 06:00N 32°17' W 090°57'3 5.2
2017-Oct-13 05:30N 32°15' W 090°59'3 6.7
2017-Oct-13 05:00N 32°11' W 090°60'2 4.6
2017-Oct-13 04:31N 32°09' W 091°00'2 4.5
2017-Oct-13 04:01N 32°07' W 091°01'2 4.6
2017-Oct-13 03:30N 32°08' W 091°04'2 4.5
2017-Oct-13 03:00N 32°07' W 091°07'3 5.8
2017-Oct-13 02:25N 32°05' W 091°04'2 3.9
2017-Oct-13 02:00N 32°03' W 091°03'3 6.1
2017-Oct-13 01:31N 32°00' W 091°05'3 5.3
2017-Oct-13 01:00N 31°59' W 091°08'3 5.0
2017-Oct-13 00:22N 31°58' W 091°11'  
2017-Oct-04 14:32N 31°59' W 091°06'1 7.3
2017-Oct-04 14:26N 31°60' W 091°05'7 6.3
2017-Oct-04 13:22N 32°06' W 091°06'2 4.5
2017-Oct-04 12:51N 32°08' W 091°04'2 7.0
2017-Oct-04 12:30N 32°07' W 091°01'4 7.7
2017-Oct-04 12:00N 32°11' W 090°60'4 7.7
2017-Oct-04 11:30N 32°15' W 090°59'4 7.7
2017-Oct-04 11:01N 32°18' W 090°56'3 6.0
2017-Oct-04 10:30N 32°20' W 090°54'3 6.8
2017-Oct-04 10:00N 32°21' W 090°58'3 5.2
2017-Oct-04 09:30N 32°23' W 090°60'3 6.6
2017-Oct-04 09:00N 32°26' W 091°02'4 7.3
2017-Oct-04 08:30N 32°28' W 091°06'4 6.7
2017-Oct-04 07:51N 32°32' W 091°06'3 7.4
2017-Oct-04 07:30N 32°34' W 091°07'4 7.4
2017-Oct-04 06:59N 32°38' W 091°09'  
Track history (hours):
 
Tides and Currents Weather Stations Pressure Air Temp Water Temp Dewpoint Dewpoint Depression Visibility Wind Speed Wind Dir Waves Ship Positions

Kathy Azlin

Owner: Mganolia Marine Traqnsport Company, Vicksburg, MS. More information available from US FCC via Universal Licensing System and Coast Guard Vessel Documentation Center.

Last reported at 2017-Oct-13 18:47 UTC. Time now 2017-Oct-18 23:52 UTC.
Position N 32°40' W 091°08'.

Length 33 m; draft 2.8 m.

Type: Towing. MMSI: 367615770.

Date/timePositionNaut miles runAvg speedWind from/ knotsBaromVisibWave heightAir tempDewpointWater temp
2017-Oct-13 18:47N 32°40' W 091°08'3 4.4
2017-Oct-13 18:11N 32°38' W 091°09'1 3.3
2017-Oct-13 18:00N 32°37' W 091°09'0 0.1
2017-Oct-13 17:30N 32°37' W 091°09'2 3.9
2017-Oct-13 17:01N 32°36' W 091°08'2 4.7
2017-Oct-13 16:31N 32°34' W 091°06'2 4.0
2017-Oct-13 15:57N 32°32' W 091°06'2 5.4
2017-Oct-13 15:30N 32°29' W 091°07'3 5.2
2017-Oct-13 15:00N 32°27' W 091°05'3 5.2
2017-Oct-13 14:30N 32°26' W 091°03'2 4.8
2017-Oct-13 14:01N 32°25' W 090°60'2 4.3
2017-Oct-13 13:30N 32°23' W 090°60'1 1.5
2017-Oct-13 13:01N 32°22' W 091°00'2 4.3
2017-Oct-13 12:30N 32°21' W 090°58'3 5.9
2017-Oct-13 12:00N 32°21' W 090°55'3 5.1
2017-Oct-13 11:31N 32°18' W 090°55'1 1.2
2017-Oct-13 11:00N 32°18' W 090°55'0 0.0
2017-Oct-13 10:30N 32°17' W 090°55'0 0.0
2017-Oct-13 10:01N 32°17' W 090°55'0 0.0
2017-Oct-13 09:30N 32°17' W 090°55'0 0.0
2017-Oct-13 09:00N 32°17' W 090°55'0 0.0
2017-Oct-13 08:30N 32°17' W 090°55'0 0.0
2017-Oct-13 08:00N 32°17' W 090°55'0 0.0
2017-Oct-13 07:31N 32°17' W 090°55'0 0.0
2017-Oct-13 07:00N 32°17' W 090°55'0 0.0
2017-Oct-13 06:31N 32°17' W 090°55'1 2.8
2017-Oct-13 06:00N 32°17' W 090°57'3 5.2
2017-Oct-13 05:30N 32°15' W 090°59'3 6.7
2017-Oct-13 05:00N 32°11' W 090°60'2 4.6
2017-Oct-13 04:31N 32°09' W 091°00'2 4.5
2017-Oct-13 04:01N 32°07' W 091°01'2 4.6
2017-Oct-13 03:30N 32°08' W 091°04'2 4.5
2017-Oct-13 03:00N 32°07' W 091°07'3 5.8
2017-Oct-13 02:25N 32°05' W 091°04'2 3.9
2017-Oct-13 02:00N 32°03' W 091°03'3 6.1
2017-Oct-13 01:31N 32°00' W 091°05'3 5.3
2017-Oct-13 01:00N 31°59' W 091°08'3 5.0
2017-Oct-13 00:22N 31°58' W 091°11'  
2017-Oct-04 14:32N 31°59' W 091°06'1 7.3
2017-Oct-04 14:26N 31°60' W 091°05'7 6.3
2017-Oct-04 13:22N 32°06' W 091°06'2 4.5
2017-Oct-04 12:51N 32°08' W 091°04'2 7.0
2017-Oct-04 12:30N 32°07' W 091°01'4 7.7
2017-Oct-04 12:00N 32°11' W 090°60'4 7.7
2017-Oct-04 11:30N 32°15' W 090°59'4 7.7
2017-Oct-04 11:01N 32°18' W 090°56'3 6.0
2017-Oct-04 10:30N 32°20' W 090°54'3 6.8
2017-Oct-04 10:00N 32°21' W 090°58'3 5.2
2017-Oct-04 09:30N 32°23' W 090°60'3 6.6
2017-Oct-04 09:00N 32°26' W 091°02'4 7.3
2017-Oct-04 08:30N 32°28' W 091°06'4 6.7
2017-Oct-04 07:51N 32°32' W 091°06'3 7.4
2017-Oct-04 07:30N 32°34' W 091°07'4 7.4
2017-Oct-04 06:59N 32°38' W 091°09'  

Dump ship's entire track history